sensor_id;sensor_type;location;lat;lon;timestamp;temperature;humidity
8178;DHT22;4130;48.740;9.132;2023-03-01T00:00:54;-3.80;99.90
8178;DHT22;4130;48.740;9.132;2023-03-01T00:03:21;-3.80;99.90
8178;DHT22;4130;48.740;9.132;2023-03-01T00:05:48;-3.80;99.90
8178;DHT22;4130;48.740;9.132;2023-03-01T00:08:14;-3.80;99.90
8178;DHT22;4130;48.740;9.132;2023-03-01T00:10:41;-3.80;99.90
8178;DHT22;4130;48.740;9.132;2023-03-01T00:13:09;-3.80;99.90
8178;DHT22;4130;48.740;9.132;2023-03-01T00:15:38;-3.80;99.90
8178;DHT22;4130;48.740;9.132;2023-03-01T00:18:05;-3.80;99.90
8178;DHT22;4130;48.740;9.132;2023-03-01T00:20:32;-3.90;99.90
8178;DHT22;4130;48.740;9.132;2023-03-01T00:22:58;-3.90;99.90
8178;DHT22;4130;48.740;9.132;2023-03-01T00:25:25;-3.90;99.90
8178;DHT22;4130;48.740;9.132;2023-03-01T00:27:52;-3.90;99.90
8178;DHT22;4130;48.740;9.132;2023-03-01T00:30:20;-4.00;99.90
8178;DHT22;4130;48.740;9.132;2023-03-01T00:32:47;-4.00;99.90
8178;DHT22;4130;48.740;9.132;2023-03-01T00:35:14;-4.00;99.90
8178;DHT22;4130;48.740;9.132;2023-03-01T00:37:40;-4.00;99.90
8178;DHT22;4130;48.740;9.132;2023-03-01T00:40:08;-4.00;99.90
8178;DHT22;4130;48.740;9.132;2023-03-01T00:42:35;-4.00;99.90
8178;DHT22;4130;48.740;9.132;2023-03-01T00:45:03;-4.00;99.90
8178;DHT22;4130;48.740;9.132;2023-03-01T00:47:31;-4.00;99.90
8178;DHT22;4130;48.740;9.132;2023-03-01T00:49:58;-4.00;99.90
8178;DHT22;4130;48.740;9.132;2023-03-01T00:52:24;-4.10;99.90
8178;DHT22;4130;48.740;9.132;2023-03-01T00:54:52;-4.10;99.90
8178;DHT22;4130;48.740;9.132;2023-03-01T00:57:19;-4.10;99.90
8178;DHT22;4130;48.740;9.132;2023-03-01T00:59:45;-4.10;99.90
8178;DHT22;4130;48.740;9.132;2023-03-01T01:02:12;-4.20;99.90
8178;DHT22;4130;48.740;9.132;2023-03-01T01:04:40;-4.20;99.90
8178;DHT22;4130;48.740;9.132;2023-03-01T01:07:07;-4.10;99.90
8178;DHT22;4130;48.740;9.132;2023-03-01T01:09:34;-4.20;99.90
8178;DHT22;4130;48.740;9.132;2023-03-01T01:12:01;-4.20;99.90
8178;DHT22;4130;48.740;9.132;2023-03-01T01:14:28;-4.20;99.90
8178;DHT22;4130;48.740;9.132;2023-03-01T01:16:54;-4.30;99.90
8178;DHT22;4130;48.740;9.132;2023-03-01T01:19:21;-4.30;99.90
8178;DHT22;4130;48.740;9.132;2023-03-01T01:21:49;-4.30;99.90
8178;DHT22;4130;48.740;9.132;2023-03-01T01:24:17;-4.30;99.90
8178;DHT22;4130;48.740;9.132;2023-03-01T01:26:44;-4.30;99.90
8178;DHT22;4130;48.740;9.132;2023-03-01T01:29:12;-4.30;99.90
8178;DHT22;4130;48.740;9.132;2023-03-01T01:31:40;-4.30;99.90
8178;DHT22;4130;48.740;9.132;2023-03-01T01:34:12;-4.30;99.90
8178;DHT22;4130;48.740;9.132;2023-03-01T01:36:39;-4.30;99.90
8178;DHT22;4130;48.740;9.132;2023-03-01T01:39:07;-4.40;99.90
8178;DHT22;4130;48.740;9.132;2023-03-01T01:41:39;-4.30;99.90
8178;DHT22;4130;48.740;9.132;2023-03-01T01:44:12;-4.40;99.90
8178;DHT22;4130;48.740;9.132;2023-03-01T01:46:41;-4.40;99.90
8178;DHT22;4130;48.740;9.132;2023-03-01T01:49:17;-4.40;99.90
8178;DHT22;4130;48.740;9.132;2023-03-01T01:51:47;-4.30;99.90
8178;DHT22;4130;48.740;9.132;2023-03-01T01:54:20;-4.30;99.90
8178;DHT22;4130;48.740;9.132;2023-03-01T01:56:52;-4.20;99.90
8178;DHT22;4130;48.740;9.132;2023-03-01T01:59:21;-4.00;99.90
8178;DHT22;4130;48.740;9.132;2023-03-01T02:01:50;-3.90;99.90
8178;DHT22;4130;48.740;9.132;2023-03-01T02:04:17;-3.70;99.90
8178;DHT22;4130;48.740;9.132;2023-03-01T02:06:48;-3.60;99.90
8178;DHT22;4130;48.740;9.132;2023-03-01T02:09:25;-3.40;99.90
8178;DHT22;4130;48.740;9.132;2023-03-01T02:11:53;-3.20;99.90
8178;DHT22;4130;48.740;9.132;2023-03-01T02:14:20;-3.10;99.90
8178;DHT22;4130;48.740;9.132;2023-03-01T02:16:47;-2.90;99.90
8178;DHT22;4130;48.740;9.132;2023-03-01T02:19:23;-2.80;99.90
8178;DHT22;4130;48.740;9.132;2023-03-01T02:22:00;-2.70;99.90
8178;DHT22;4130;48.740;9.132;2023-03-01T02:24:40;-2.60;99.90
8178;DHT22;4130;48.740;9.132;2023-03-01T02:27:11;-2.60;99.90
8178;DHT22;4130;48.740;9.132;2023-03-01T02:29:39;-2.50;99.90
8178;DHT22;4130;48.740;9.132;2023-03-01T02:32:09;-2.40;99.90
8178;DHT22;4130;48.740;9.132;2023-03-01T02:34:36;-2.30;99.90
8178;DHT22;4130;48.740;9.132;2023-03-01T02:37:06;-2.30;99.90
8178;DHT22;4130;48.740;9.132;2023-03-01T02:39:38;-2.20;99.90
8178;DHT22;4130;48.740;9.132;2023-03-01T02:42:11;-2.20;99.90
8178;DHT22;4130;48.740;9.132;2023-03-01T02:44:40;-2.20;99.90
8178;DHT22;4130;48.740;9.132;2023-03-01T02:47:07;-2.10;99.90
8178;DHT22;4130;48.740;9.132;2023-03-01T02:49:35;-2.10;99.90
8178;DHT22;4130;48.740;9.132;2023-03-01T02:52:20;-2.00;99.90
8178;DHT22;4130;48.740;9.132;2023-03-01T02:54:52;-2.00;99.90
8178;DHT22;4130;48.740;9.132;2023-03-01T02:57:22;-1.90;99.90
8178;DHT22;4130;48.740;9.132;2023-03-01T02:59:52;-1.90;99.90
8178;DHT22;4130;48.740;9.132;2023-03-01T03:02:22;-1.80;99.90
8178;DHT22;4130;48.740;9.132;2023-03-01T03:05:02;-1.80;99.90
8178;DHT22;4130;48.740;9.132;2023-03-01T03:07:31;-1.80;99.90
8178;DHT22;4130;48.740;9.132;2023-03-01T03:09:58;-1.80;99.90
8178;DHT22;4130;48.740;9.132;2023-03-01T03:12:25;-1.70;99.90
8178;DHT22;4130;48.740;9.132;2023-03-01T03:14:53;-1.70;99.90
8178;DHT22;4130;48.740;9.132;2023-03-01T03:17:20;-1.70;99.90
8178;DHT22;4130;48.740;9.132;2023-03-01T03:19:47;-1.70;99.90
8178;DHT22;4130;48.740;9.132;2023-03-01T03:22:14;-1.70;99.90
8178;DHT22;4130;48.740;9.132;2023-03-01T03:24:40;-1.70;99.90
8178;DHT22;4130;48.740;9.132;2023-03-01T03:27:07;-1.60;99.90
8178;DHT22;4130;48.740;9.132;2023-03-01T03:29:34;-1.60;99.90
8178;DHT22;4130;48.740;9.132;2023-03-01T03:32:03;-1.60;99.90
8178;DHT22;4130;48.740;9.132;2023-03-01T03:34:30;-1.60;99.90
8178;DHT22;4130;48.740;9.132;2023-03-01T03:36:57;-1.60;99.90
8178;DHT22;4130;48.740;9.132;2023-03-01T03:39:25;-1.50;99.90
8178;DHT22;4130;48.740;9.132;2023-03-01T03:41:52;-1.50;99.90
8178;DHT22;4130;48.740;9.132;2023-03-01T03:44:19;-1.50;99.90
8178;DHT22;4130;48.740;9.132;2023-03-01T03:46:46;-1.50;99.90
8178;DHT22;4130;48.740;9.132;2023-03-01T03:49:14;-1.50;99.90
8178;DHT22;4130;48.740;9.132;2023-03-01T03:51:41;-1.50;99.90
8178;DHT22;4130;48.740;9.132;2023-03-01T03:54:07;-1.40;99.90
8178;DHT22;4130;48.740;9.132;2023-03-01T03:56:34;-1.40;99.90
8178;DHT22;4130;48.740;9.132;2023-03-01T03:59:01;-1.40;99.90
8178;DHT22;4130;48.740;9.132;2023-03-01T04:01:28;-1.40;99.90
8178;DHT22;4130;48.740;9.132;2023-03-01T04:03:58;-1.30;99.90
8178;DHT22;4130;48.740;9.132;2023-03-01T04:06:30;-1.30;99.90
8178;DHT22;4130;48.740;9.132;2023-03-01T04:08:57;-1.40;99.90
8178;DHT22;4130;48.740;9.132;2023-03-01T04:11:26;-1.30;99.90
8178;DHT22;4130;48.740;9.132;2023-03-01T04:13:54;-1.30;99.90
8178;DHT22;4130;48.740;9.132;2023-03-01T04:16:22;-1.30;99.90
8178;DHT22;4130;48.740;9.132;2023-03-01T04:18:49;-1.20;99.90
8178;DHT22;4130;48.740;9.132;2023-03-01T04:21:16;-1.20;99.90
8178;DHT22;4130;48.740;9.132;2023-03-01T04:23:44;-1.20;99.90
8178;DHT22;4130;48.740;9.132;2023-03-01T04:26:11;-1.10;99.90
8178;DHT22;4130;48.740;9.132;2023-03-01T04:28:39;-1.10;99.90
8178;DHT22;4130;48.740;9.132;2023-03-01T04:31:10;-1.10;99.90
8178;DHT22;4130;48.740;9.132;2023-03-01T04:33:39;-1.20;99.90
8178;DHT22;4130;48.740;9.132;2023-03-01T04:36:07;-1.10;99.90
8178;DHT22;4130;48.740;9.132;2023-03-01T04:38:35;-1.10;99.90
8178;DHT22;4130;48.740;9.132;2023-03-01T04:41:04;-1.10;99.90
8178;DHT22;4130;48.740;9.132;2023-03-01T04:43:31;-1.10;99.90
8178;DHT22;4130;48.740;9.132;2023-03-01T04:46:03;-1.00;99.90
8178;DHT22;4130;48.740;9.132;2023-03-01T04:48:32;-1.00;99.90
8178;DHT22;4130;48.740;9.132;2023-03-01T04:50:59;-1.00;99.90
8178;DHT22;4130;48.740;9.132;2023-03-01T04:53:26;-1.00;99.90
8178;DHT22;4130;48.740;9.132;2023-03-01T04:55:54;-1.00;99.90
8178;DHT22;4130;48.740;9.132;2023-03-01T04:58:22;-1.00;99.90
8178;DHT22;4130;48.740;9.132;2023-03-01T05:00:49;-1.10;99.90
8178;DHT22;4130;48.740;9.132;2023-03-01T05:03:16;-1.00;99.90
8178;DHT22;4130;48.740;9.132;2023-03-01T05:05:45;-1.10;99.90
8178;DHT22;4130;48.740;9.132;2023-03-01T05:08:13;-1.10;99.90
8178;DHT22;4130;48.740;9.132;2023-03-01T05:10:44;-1.10;99.90
8178;DHT22;4130;48.740;9.132;2023-03-01T05:13:11;-1.00;99.90
8178;DHT22;4130;48.740;9.132;2023-03-01T05:15:41;-1.00;99.90
8178;DHT22;4130;48.740;9.132;2023-03-01T05:18:08;-1.00;99.90
8178;DHT22;4130;48.740;9.132;2023-03-01T05:20:37;-1.00;99.90
8178;DHT22;4130;48.740;9.132;2023-03-01T05:23:04;-1.00;99.90
8178;DHT22;4130;48.740;9.132;2023-03-01T05:25:32;-1.00;99.90
8178;DHT22;4130;48.740;9.132;2023-03-01T05:27:59;-1.00;99.90
8178;DHT22;4130;48.740;9.132;2023-03-01T05:30:30;-1.00;99.90
8178;DHT22;4130;48.740;9.132;2023-03-01T05:32:58;-1.00;99.90
8178;DHT22;4130;48.740;9.132;2023-03-01T05:35:25;-1.00;99.90
8178;DHT22;4130;48.740;9.132;2023-03-01T05:37:52;-1.00;99.90
8178;DHT22;4130;48.740;9.132;2023-03-01T05:40:21;-0.90;99.90
8178;DHT22;4130;48.740;9.132;2023-03-01T05:42:49;-0.90;99.90
8178;DHT22;4130;48.740;9.132;2023-03-01T05:45:17;-0.90;99.90
8178;DHT22;4130;48.740;9.132;2023-03-01T05:47:45;-0.90;99.90
8178;DHT22;4130;48.740;9.132;2023-03-01T05:50:16;-0.90;99.90
8178;DHT22;4130;48.740;9.132;2023-03-01T05:52:45;-0.90;99.90
8178;DHT22;4130;48.740;9.132;2023-03-01T05:55:14;-0.80;99.90
8178;DHT22;4130;48.740;9.132;2023-03-01T05:57:40;-0.80;99.90
8178;DHT22;4130;48.740;9.132;2023-03-01T06:00:08;-0.80;99.90
8178;DHT22;4130;48.740;9.132;2023-03-01T06:02:35;-0.80;99.90
8178;DHT22;4130;48.740;9.132;2023-03-01T06:05:03;-0.80;99.90
8178;DHT22;4130;48.740;9.132;2023-03-01T06:07:31;-0.70;99.90
8178;DHT22;4130;48.740;9.132;2023-03-01T06:09:58;-0.70;99.90
8178;DHT22;4130;48.740;9.132;2023-03-01T06:12:25;-0.70;99.90
8178;DHT22;4130;48.740;9.132;2023-03-01T06:14:52;-0.70;99.90
8178;DHT22;4130;48.740;9.132;2023-03-01T06:17:18;-0.70;99.90
8178;DHT22;4130;48.740;9.132;2023-03-01T06:19:46;-0.70;99.90
8178;DHT22;4130;48.740;9.132;2023-03-01T06:22:13;-0.70;99.90
8178;DHT22;4130;48.740;9.132;2023-03-01T06:24:41;-0.70;99.90
8178;DHT22;4130;48.740;9.132;2023-03-01T06:27:07;-0.60;99.90
8178;DHT22;4130;48.740;9.132;2023-03-01T06:29:34;-0.60;99.90
8178;DHT22;4130;48.740;9.132;2023-03-01T06:32:02;-0.60;99.90
8178;DHT22;4130;48.740;9.132;2023-03-01T06:34:29;-0.60;99.90
8178;DHT22;4130;48.740;9.132;2023-03-01T06:36:55;-0.60;99.90
8178;DHT22;4130;48.740;9.132;2023-03-01T06:39:22;-0.60;99.90
8178;DHT22;4130;48.740;9.132;2023-03-01T06:41:50;-0.60;99.90
8178;DHT22;4130;48.740;9.132;2023-03-01T06:44:17;-0.60;99.90
8178;DHT22;4130;48.740;9.132;2023-03-01T06:46:44;-0.50;99.90
8178;DHT22;4130;48.740;9.132;2023-03-01T06:49:10;-0.50;99.90
8178;DHT22;4130;48.740;9.132;2023-03-01T06:51:37;-0.50;99.90
8178;DHT22;4130;48.740;9.132;2023-03-01T06:54:04;-0.40;99.90
8178;DHT22;4130;48.740;9.132;2023-03-01T06:56:31;-0.40;99.90
8178;DHT22;4130;48.740;9.132;2023-03-01T06:58:59;-0.40;99.90
8178;DHT22;4130;48.740;9.132;2023-03-01T07:01:28;-0.30;99.90
8178;DHT22;4130;48.740;9.132;2023-03-01T07:03:55;-0.30;99.90
8178;DHT22;4130;48.740;9.132;2023-03-01T07:06:22;-0.30;99.90
8178;DHT22;4130;48.740;9.132;2023-03-01T07:08:49;-0.30;99.90
8178;DHT22;4130;48.740;9.132;2023-03-01T07:11:16;-0.30;99.90
8178;DHT22;4130;48.740;9.132;2023-03-01T07:13:43;-0.40;99.90
8178;DHT22;4130;48.740;9.132;2023-03-01T07:16:11;-0.40;99.90
8178;DHT22;4130;48.740;9.132;2023-03-01T07:18:37;-0.60;99.90
8178;DHT22;4130;48.740;9.132;2023-03-01T07:21:05;-0.70;99.90
8178;DHT22;4130;48.740;9.132;2023-03-01T07:23:32;-0.80;99.90
8178;DHT22;4130;48.740;9.132;2023-03-01T07:25:59;-0.80;99.90
8178;DHT22;4130;48.740;9.132;2023-03-01T07:28:26;-0.90;99.90
8178;DHT22;4130;48.740;9.132;2023-03-01T07:30:53;-0.90;99.90
8178;DHT22;4130;48.740;9.132;2023-03-01T07:33:21;-1.00;99.90
8178;DHT22;4130;48.740;9.132;2023-03-01T07:35:48;-1.00;99.90
8178;DHT22;4130;48.740;9.132;2023-03-01T07:38:14;-1.00;99.90
8178;DHT22;4130;48.740;9.132;2023-03-01T07:40:41;-1.10;99.90
8178;DHT22;4130;48.740;9.132;2023-03-01T07:43:08;-1.00;99.90
8178;DHT22;4130;48.740;9.132;2023-03-01T07:45:34;-1.10;99.90
8178;DHT22;4130;48.740;9.132;2023-03-01T07:48:01;-1.00;99.90
8178;DHT22;4130;48.740;9.132;2023-03-01T07:50:29;-1.00;99.90
8178;DHT22;4130;48.740;9.132;2023-03-01T07:52:56;-1.00;99.90
8178;DHT22;4130;48.740;9.132;2023-03-01T07:55:23;-0.90;99.90
8178;DHT22;4130;48.740;9.132;2023-03-01T07:57:49;-0.90;99.90
8178;DHT22;4130;48.740;9.132;2023-03-01T08:00:17;-0.90;99.90
8178;DHT22;4130;48.740;9.132;2023-03-01T08:02:44;-0.80;99.90
8178;DHT22;4130;48.740;9.132;2023-03-01T08:05:11;-0.80;99.90
8178;DHT22;4130;48.740;9.132;2023-03-01T08:07:39;-0.70;99.90
8178;DHT22;4130;48.740;9.132;2023-03-01T08:10:06;-0.70;99.90
8178;DHT22;4130;48.740;9.132;2023-03-01T08:12:33;-0.70;99.90
8178;DHT22;4130;48.740;9.132;2023-03-01T08:14:59;-0.60;99.90
8178;DHT22;4130;48.740;9.132;2023-03-01T08:17:26;-0.60;99.90
8178;DHT22;4130;48.740;9.132;2023-03-01T08:19:53;-0.50;99.90
8178;DHT22;4130;48.740;9.132;2023-03-01T08:22:20;-0.50;99.90
8178;DHT22;4130;48.740;9.132;2023-03-01T08:24:48;-0.40;99.90
8178;DHT22;4130;48.740;9.132;2023-03-01T08:27:15;-0.30;99.90
8178;DHT22;4130;48.740;9.132;2023-03-01T08:29:42;-0.30;99.90
8178;DHT22;4130;48.740;9.132;2023-03-01T08:32:09;-0.20;99.90
8178;DHT22;4130;48.740;9.132;2023-03-01T08:34:35;-0.10;99.90
8178;DHT22;4130;48.740;9.132;2023-03-01T08:37:02;-0.10;99.90
8178;DHT22;4130;48.740;9.132;2023-03-01T08:39:29;0.10;99.90
8178;DHT22;4130;48.740;9.132;2023-03-01T08:41:57;0.10;99.90
8178;DHT22;4130;48.740;9.132;2023-03-01T08:44:24;0.20;99.90
8178;DHT22;4130;48.740;9.132;2023-03-01T08:46:51;0.30;99.90
8178;DHT22;4130;48.740;9.132;2023-03-01T08:49:19;0.30;99.90
8178;DHT22;4130;48.740;9.132;2023-03-01T08:51:47;0.40;99.90
8178;DHT22;4130;48.740;9.132;2023-03-01T08:54:16;0.40;99.90
8178;DHT22;4130;48.740;9.132;2023-03-01T08:56:43;0.50;99.90
8178;DHT22;4130;48.740;9.132;2023-03-01T08:59:12;0.50;99.90
8178;DHT22;4130;48.740;9.132;2023-03-01T09:01:39;0.60;99.90
8178;DHT22;4130;48.740;9.132;2023-03-01T09:04:08;0.70;99.90
8178;DHT22;4130;48.740;9.132;2023-03-01T09:06:36;0.80;99.90
8178;DHT22;4130;48.740;9.132;2023-03-01T09:09:04;0.90;99.90
8178;DHT22;4130;48.740;9.132;2023-03-01T09:11:31;0.90;99.90
8178;DHT22;4130;48.740;9.132;2023-03-01T09:13:58;1.00;99.90
8178;DHT22;4130;48.740;9.132;2023-03-01T09:16:26;1.10;99.90
8178;DHT22;4130;48.740;9.132;2023-03-01T09:18:55;1.30;99.90
8178;DHT22;4130;48.740;9.132;2023-03-01T09:21:23;1.50;99.90
8178;DHT22;4130;48.740;9.132;2023-03-01T09:23:50;1.60;99.90
8178;DHT22;4130;48.740;9.132;2023-03-01T09:26:18;1.70;99.90
8178;DHT22;4130;48.740;9.132;2023-03-01T09:28:47;1.70;99.90
8178;DHT22;4130;48.740;9.132;2023-03-01T09:31:15;1.80;99.90
8178;DHT22;4130;48.740;9.132;2023-03-01T09:33:46;1.90;99.90
8178;DHT22;4130;48.740;9.132;2023-03-01T09:36:15;2.00;99.90
8178;DHT22;4130;48.740;9.132;2023-03-01T09:38:43;2.00;99.90
8178;DHT22;4130;48.740;9.132;2023-03-01T09:41:11;2.20;99.90
8178;DHT22;4130;48.740;9.132;2023-03-01T09:43:49;2.40;99.90
8178;DHT22;4130;48.740;9.132;2023-03-01T09:46:21;2.50;99.90
8178;DHT22;4130;48.740;9.132;2023-03-01T09:48:52;2.60;99.90
8178;DHT22;4130;48.740;9.132;2023-03-01T09:51:26;2.80;99.90
8178;DHT22;4130;48.740;9.132;2023-03-01T09:53:53;2.90;99.90
8178;DHT22;4130;48.740;9.132;2023-03-01T09:56:25;3.10;99.90
8178;DHT22;4130;48.740;9.132;2023-03-01T09:58:59;3.10;99.90
8178;DHT22;4130;48.740;9.132;2023-03-01T10:01:30;3.20;99.90
8178;DHT22;4130;48.740;9.132;2023-03-01T10:04:26;3.30;99.90
8178;DHT22;4130;48.740;9.132;2023-03-01T10:07:03;3.30;99.90
8178;DHT22;4130;48.740;9.132;2023-03-01T10:09:34;3.50;99.90
8178;DHT22;4130;48.740;9.132;2023-03-01T10:12:02;3.60;99.90
8178;DHT22;4130;48.740;9.132;2023-03-01T10:14:34;3.80;99.90
8178;DHT22;4130;48.740;9.132;2023-03-01T10:17:03;3.90;99.90
8178;DHT22;4130;48.740;9.132;2023-03-01T10:19:36;4.10;99.90
8178;DHT22;4130;48.740;9.132;2023-03-01T10:22:12;4.30;99.90
8178;DHT22;4130;48.740;9.132;2023-03-01T10:24:40;4.30;99.90
8178;DHT22;4130;48.740;9.132;2023-03-01T10:27:10;4.40;99.90
8178;DHT22;4130;48.740;9.132;2023-03-01T10:29:44;4.50;99.90
8178;DHT22;4130;48.740;9.132;2023-03-01T10:32:12;4.60;99.90
8178;DHT22;4130;48.740;9.132;2023-03-01T10:34:40;4.50;99.90
8178;DHT22;4130;48.740;9.132;2023-03-01T10:37:12;4.60;99.90
8178;DHT22;4130;48.740;9.132;2023-03-01T10:39:55;4.70;99.90
8178;DHT22;4130;48.740;9.132;2023-03-01T10:42:26;4.90;99.90
8178;DHT22;4130;48.740;9.132;2023-03-01T10:44:54;5.10;99.90
8178;DHT22;4130;48.740;9.132;2023-03-01T10:47:23;5.10;99.90
8178;DHT22;4130;48.740;9.132;2023-03-01T10:49:56;5.10;99.90
8178;DHT22;4130;48.740;9.132;2023-03-01T10:52:32;5.20;99.90
8178;DHT22;4130;48.740;9.132;2023-03-01T10:55:02;5.40;99.90
8178;DHT22;4130;48.740;9.132;2023-03-01T10:57:35;5.50;99.90
8178;DHT22;4130;48.740;9.132;2023-03-01T11:00:18;5.60;99.90
8178;DHT22;4130;48.740;9.132;2023-03-01T11:02:48;5.80;99.80
8178;DHT22;4130;48.740;9.132;2023-03-01T11:05:22;6.00;99.10
8178;DHT22;4130;48.740;9.132;2023-03-01T11:07:51;5.90;99.20
8178;DHT22;4130;48.740;9.132;2023-03-01T11:10:21;6.00;98.80
8178;DHT22;4130;48.740;9.132;2023-03-01T11:12:48;6.00;98.10
8178;DHT22;4130;48.740;9.132;2023-03-01T11:15:24;6.00;98.00
8178;DHT22;4130;48.740;9.132;2023-03-01T11:17:50;5.90;98.10
8178;DHT22;4130;48.740;9.132;2023-03-01T11:20:25;6.00;98.10
8178;DHT22;4130;48.740;9.132;2023-03-01T11:22:54;6.10;98.40
8178;DHT22;4130;48.740;9.132;2023-03-01T11:25:25;6.30;97.60
8178;DHT22;4130;48.740;9.132;2023-03-01T11:27:53;6.50;97.90
8178;DHT22;4130;48.740;9.132;2023-03-01T11:30:24;6.70;97.60
8178;DHT22;4130;48.740;9.132;2023-03-01T11:33:01;6.80;97.60
8178;DHT22;4130;48.740;9.132;2023-03-01T11:35:32;6.90;97.40
8178;DHT22;4130;48.740;9.132;2023-03-01T11:38:10;6.90;97.10
8178;DHT22;4130;48.740;9.132;2023-03-01T11:40:44;6.90;97.00
8178;DHT22;4130;48.740;9.132;2023-03-01T11:43:17;6.80;96.50
8178;DHT22;4130;48.740;9.132;2023-03-01T11:46:18;6.90;96.40
8178;DHT22;4130;48.740;9.132;2023-03-01T11:48:55;6.90;96.50
8178;DHT22;4130;48.740;9.132;2023-03-01T11:51:41;7.10;96.40
8178;DHT22;4130;48.740;9.132;2023-03-01T11:54:21;7.10;96.40
8178;DHT22;4130;48.740;9.132;2023-03-01T11:56:57;7.00;96.10
8178;DHT22;4130;48.740;9.132;2023-03-01T12:03:01;7.10;96.30
8178;DHT22;4130;48.740;9.132;2023-03-01T12:05:54;7.30;95.80
8178;DHT22;4130;48.740;9.132;2023-03-01T12:08:35;7.40;95.20
8178;DHT22;4130;48.740;9.132;2023-03-01T12:11:12;7.60;95.80
8178;DHT22;4130;48.740;9.132;2023-03-01T12:14:17;7.50;95.10
8178;DHT22;4130;48.740;9.132;2023-03-01T12:22:53;7.60;95.20
8178;DHT22;4130;48.740;9.132;2023-03-01T12:25:28;7.50;94.80
8178;DHT22;4130;48.740;9.132;2023-03-01T12:31:40;7.60;94.80
8178;DHT22;4130;48.740;9.132;2023-03-01T12:34:20;7.70;94.80
8178;DHT22;4130;48.740;9.132;2023-03-01T12:37:00;7.80;95.00
8178;DHT22;4130;48.740;9.132;2023-03-01T12:39:44;7.90;94.50
8178;DHT22;4130;48.740;9.132;2023-03-01T12:42:23;7.90;94.90
8178;DHT22;4130;48.740;9.132;2023-03-01T12:45:14;8.00;94.80
8178;DHT22;4130;48.740;9.132;2023-03-01T12:47:59;8.00;94.30
8178;DHT22;4130;48.740;9.132;2023-03-01T12:50:37;8.10;94.10
8178;DHT22;4130;48.740;9.132;2023-03-01T12:53:07;8.10;94.10
8178;DHT22;4130;48.740;9.132;2023-03-01T12:55:43;8.20;94.40
8178;DHT22;4130;48.740;9.132;2023-03-01T12:58:22;8.30;94.00
8178;DHT22;4130;48.740;9.132;2023-03-01T13:01:01;8.30;94.20
8178;DHT22;4130;48.740;9.132;2023-03-01T13:03:38;8.30;94.10
8178;DHT22;4130;48.740;9.132;2023-03-01T13:06:12;8.30;94.10
8178;DHT22;4130;48.740;9.132;2023-03-01T13:08:46;8.30;94.10
8178;DHT22;4130;48.740;9.132;2023-03-01T13:11:17;8.40;93.90
8178;DHT22;4130;48.740;9.132;2023-03-01T13:13:46;8.40;93.50
8178;DHT22;4130;48.740;9.132;2023-03-01T13:16:28;8.50;93.60
8178;DHT22;4130;48.740;9.132;2023-03-01T13:19:12;8.60;93.40
8178;DHT22;4130;48.740;9.132;2023-03-01T13:21:41;8.50;93.20
8178;DHT22;4130;48.740;9.132;2023-03-01T13:24:24;8.50;93.60
8178;DHT22;4130;48.740;9.132;2023-03-01T13:27:21;8.40;93.50
8178;DHT22;4130;48.740;9.132;2023-03-01T13:29:52;8.40;93.60
8178;DHT22;4130;48.740;9.132;2023-03-01T13:32:22;8.30;93.50
8178;DHT22;4130;48.740;9.132;2023-03-01T13:34:54;8.10;93.30
8178;DHT22;4130;48.740;9.132;2023-03-01T13:37:32;8.00;93.70
8178;DHT22;4130;48.740;9.132;2023-03-01T13:42:48;8.00;93.60
8178;DHT22;4130;48.740;9.132;2023-03-01T13:45:20;8.10;93.70
8178;DHT22;4130;48.740;9.132;2023-03-01T13:47:52;8.10;93.50
8178;DHT22;4130;48.740;9.132;2023-03-01T13:50:22;8.00;93.20
8178;DHT22;4130;48.740;9.132;2023-03-01T13:52:53;8.00;93.60
8178;DHT22;4130;48.740;9.132;2023-03-01T13:55:24;8.00;93.60
8178;DHT22;4130;48.740;9.132;2023-03-01T13:57:56;8.10;93.70
8178;DHT22;4130;48.740;9.132;2023-03-01T14:00:34;8.00;93.30
8178;DHT22;4130;48.740;9.132;2023-03-01T14:03:09;8.00;93.20
8178;DHT22;4130;48.740;9.132;2023-03-01T14:05:36;7.80;93.40
8178;DHT22;4130;48.740;9.132;2023-03-01T14:08:04;7.80;93.40
8178;DHT22;4130;48.740;9.132;2023-03-01T14:10:36;7.80;93.30
8178;DHT22;4130;48.740;9.132;2023-03-01T14:13:25;7.80;93.40
8178;DHT22;4130;48.740;9.132;2023-03-01T14:16:09;7.70;93.10
8178;DHT22;4130;48.740;9.132;2023-03-01T14:18:43;7.50;93.50
8178;DHT22;4130;48.740;9.132;2023-03-01T14:21:13;7.40;93.50
8178;DHT22;4130;48.740;9.132;2023-03-01T14:23:41;7.30;93.70
8178;DHT22;4130;48.740;9.132;2023-03-01T14:26:08;7.30;93.80
8178;DHT22;4130;48.740;9.132;2023-03-01T14:28:38;7.30;93.80
8178;DHT22;4130;48.740;9.132;2023-03-01T14:31:34;7.20;93.60
8178;DHT22;4130;48.740;9.132;2023-03-01T14:34:01;7.20;93.80
8178;DHT22;4130;48.740;9.132;2023-03-01T14:36:30;7.20;93.60
8178;DHT22;4130;48.740;9.132;2023-03-01T14:38:57;7.20;93.50
8178;DHT22;4130;48.740;9.132;2023-03-01T14:41:32;7.20;93.70
8178;DHT22;4130;48.740;9.132;2023-03-01T14:44:02;7.20;94.00
8178;DHT22;4130;48.740;9.132;2023-03-01T14:46:34;7.30;93.90
8178;DHT22;4130;48.740;9.132;2023-03-01T14:49:03;7.30;93.80
8178;DHT22;4130;48.740;9.132;2023-03-01T14:51:30;7.20;93.70
8178;DHT22;4130;48.740;9.132;2023-03-01T14:54:01;7.20;93.80
8178;DHT22;4130;48.740;9.132;2023-03-01T14:56:43;7.20;93.60
8178;DHT22;4130;48.740;9.132;2023-03-01T14:59:11;7.20;94.00
8178;DHT22;4130;48.740;9.132;2023-03-01T15:01:40;7.20;93.90
8178;DHT22;4130;48.740;9.132;2023-03-01T15:04:11;7.20;93.60
8178;DHT22;4130;48.740;9.132;2023-03-01T15:06:39;7.20;93.80
8178;DHT22;4130;48.740;9.132;2023-03-01T15:09:06;7.20;93.90
8178;DHT22;4130;48.740;9.132;2023-03-01T15:11:37;7.20;93.90
8178;DHT22;4130;48.740;9.132;2023-03-01T15:14:38;7.20;93.90
8178;DHT22;4130;48.740;9.132;2023-03-01T15:17:20;7.20;94.10
8178;DHT22;4130;48.740;9.132;2023-03-01T15:19:49;7.20;93.90
8178;DHT22;4130;48.740;9.132;2023-03-01T15:22:16;7.30;94.00
8178;DHT22;4130;48.740;9.132;2023-03-01T15:24:47;7.30;94.30
8178;DHT22;4130;48.740;9.132;2023-03-01T15:27:17;7.20;94.20
8178;DHT22;4130;48.740;9.132;2023-03-01T15:29:49;7.10;93.90
8178;DHT22;4130;48.740;9.132;2023-03-01T15:32:30;7.10;94.00
8178;DHT22;4130;48.740;9.132;2023-03-01T15:34:57;6.90;94.00
8178;DHT22;4130;48.740;9.132;2023-03-01T15:37:40;6.80;94.20
8178;DHT22;4130;48.740;9.132;2023-03-01T15:40:19;6.80;94.30
8178;DHT22;4130;48.740;9.132;2023-03-01T15:42:49;6.70;94.20
8178;DHT22;4130;48.740;9.132;2023-03-01T15:45:24;6.60;94.10
8178;DHT22;4130;48.740;9.132;2023-03-01T15:47:55;6.60;94.30
8178;DHT22;4130;48.740;9.132;2023-03-01T15:50:25;6.60;94.40
8178;DHT22;4130;48.740;9.132;2023-03-01T15:52:53;6.50;94.40
8178;DHT22;4130;48.740;9.132;2023-03-01T15:55:22;6.50;94.40
8178;DHT22;4130;48.740;9.132;2023-03-01T15:57:50;6.40;94.40
8178;DHT22;4130;48.740;9.132;2023-03-01T16:00:25;6.40;94.50
8178;DHT22;4130;48.740;9.132;2023-03-01T16:02:51;6.40;94.30
8178;DHT22;4130;48.740;9.132;2023-03-01T16:05:22;6.30;94.30
8178;DHT22;4130;48.740;9.132;2023-03-01T16:07:49;6.20;94.50
8178;DHT22;4130;48.740;9.132;2023-03-01T16:10:17;6.20;94.40
8178;DHT22;4130;48.740;9.132;2023-03-01T16:12:44;6.10;94.50
8178;DHT22;4130;48.740;9.132;2023-03-01T16:15:14;6.10;94.40
8178;DHT22;4130;48.740;9.132;2023-03-01T16:17:41;6.00;94.30
8178;DHT22;4130;48.740;9.132;2023-03-01T16:20:09;5.90;94.30
8178;DHT22;4130;48.740;9.132;2023-03-01T16:22:38;5.80;94.50
8178;DHT22;4130;48.740;9.132;2023-03-01T16:25:05;5.70;94.30
8178;DHT22;4130;48.740;9.132;2023-03-01T16:27:33;5.70;94.60
8178;DHT22;4130;48.740;9.132;2023-03-01T16:30:00;5.60;94.50
8178;DHT22;4130;48.740;9.132;2023-03-01T16:32:27;5.60;94.40
8178;DHT22;4130;48.740;9.132;2023-03-01T16:34:53;5.40;94.60
8178;DHT22;4130;48.740;9.132;2023-03-01T16:37:20;5.30;94.50
8178;DHT22;4130;48.740;9.132;2023-03-01T16:39:48;5.20;94.60
8178;DHT22;4130;48.740;9.132;2023-03-01T16:42:17;5.10;94.60
8178;DHT22;4130;48.740;9.132;2023-03-01T16:44:43;5.00;94.70